Time;durP1;ratioP1;P1;durP2;ratioP2;P2;SDS_P1;SDS_P2;PMS_P1;PMS_P2;Temp;Humidity;BMP_temperature;BMP_pressure;BME280_temperature;BME280_humidity;BME280_pressure;Samples;Min_cycle;Max_cycle;Signal;HPM_P1;HPM_P2
2022/04/27 00:00:33;;;;;;;12.75;7.88;;;4.70;99.90;;;;;;5111492;28;20075;-73
2022/04/27 00:03:01;;;;;;;11.77;7.20;;;4.80;99.90;;;;;;5131884;27;20097;-73
2022/04/27 00:05:28;;;;;;;10.65;7.45;;;4.80;99.90;;;;;;5132174;27;20039;-73
2022/04/27 00:07:54;;;;;;;14.40;7.85;;;4.90;99.90;;;;;;5132176;27;20046;-73
2022/04/27 00:10:20;;;;;;;11.07;7.15;;;4.90;99.90;;;;;;5132016;27;20047;-73
2022/04/27 00:12:46;;;;;;;10.30;7.13;;;5.00;99.90;;;;;;5132354;27;20050;-73
2022/04/27 00:15:13;;;;;;;11.85;7.25;;;5.00;99.90;;;;;;5132237;27;20047;-73
2022/04/27 00:17:39;;;;;;;9.25;7.22;;;5.00;99.90;;;;;;5132274;27;20407;-73
2022/04/27 00:20:06;;;;;;;9.60;7.35;;;5.00;99.90;;;;;;5131830;27;20043;-73
2022/04/27 00:22:31;;;;;;;11.18;7.95;;;5.00;99.90;;;;;;5132068;27;20477;-73
2022/04/27 00:25:02;;;;;;;11.50;7.65;;;5.00;99.90;;;;;;5132263;27;20092;-73
2022/04/27 00:27:28;;;;;;;10.35;7.47;;;5.00;99.90;;;;;;5128828;27;20508;-73
2022/04/27 00:29:54;;;;;;;14.15;7.47;;;5.00;99.90;;;;;;5110857;27;20572;-73
2022/04/27 00:32:20;;;;;;;9.80;6.82;;;5.00;99.90;;;;;;5108300;28;20570;-73
2022/04/27 00:34:45;;;;;;;7.95;6.95;;;4.90;99.90;;;;;;5090762;28;20040;-73
2022/04/27 00:37:11;;;;;;;10.93;7.72;;;4.90;99.90;;;;;;5091098;28;20052;-72
2022/04/27 00:39:36;;;;;;;12.48;6.60;;;4.90;99.90;;;;;;5073735;28;20040;-72
2022/04/27 00:42:21;;;;;;;266.38;12.73;;;4.90;99.90;;;;;;5090897;28;20062;-72
2022/04/27 00:44:47;;;;;;;6.25;5.53;;;4.80;99.90;;;;;;5090709;28;20032;-72
2022/04/27 00:47:14;;;;;;;8.88;6.32;;;4.60;99.90;;;;;;5091983;28;20032;-72
2022/04/27 00:49:43;;;;;;;8.93;7.40;;;4.60;99.90;;;;;;5090278;28;20498;-72
2022/04/27 00:52:12;;;;;;;11.27;9.48;;;4.60;99.90;;;;;;5090887;28;20123;-72
2022/04/27 00:54:40;;;;;;;14.80;9.93;;;4.50;99.90;;;;;;5090507;28;20070;-72
2022/04/27 00:57:07;;;;;;;13.23;9.68;;;4.50;99.90;;;;;;5090553;28;20051;-72
2022/04/27 00:59:33;;;;;;;11.32;9.02;;;4.50;99.90;;;;;;5090563;28;20516;-72
2022/04/27 01:01:59;;;;;;;9.55;7.90;;;4.40;99.90;;;;;;5090724;28;20118;-72
2022/04/27 01:04:24;;;;;;;8.13;6.60;;;4.40;99.90;;;;;;5090626;28;20051;-72
2022/04/27 01:06:50;;;;;;;9.73;7.88;;;4.30;99.90;;;;;;5073611;28;20036;-72
2022/04/27 01:09:18;;;;;;;12.20;9.38;;;4.20;99.90;;;;;;5093701;28;20032;-72
2022/04/27 01:11:44;;;;;;;10.52;8.13;;;4.20;99.90;;;;;;5089324;28;20465;-72
2022/04/27 01:14:10;;;;;;;9.32;8.38;;;4.20;99.90;;;;;;5088032;28;20465;-72
2022/04/27 01:16:36;;;;;;;11.95;8.85;;;4.20;99.90;;;;;;5108837;28;20076;-72
2022/04/27 01:19:03;;;;;;;11.90;8.40;;;4.20;99.90;;;;;;5107934;28;20047;-72
2022/04/27 01:21:28;;;;;;;10.23;8.40;;;4.20;99.90;;;;;;5107179;28;20480;-72
2022/04/27 01:23:54;;;;;;;11.20;8.57;;;4.20;99.90;;;;;;5092685;28;20126;-72
2022/04/27 01:26:20;;;;;;;14.75;9.35;;;4.30;99.90;;;;;;5088351;28;20035;-72
2022/04/27 01:28:46;;;;;;;12.85;9.38;;;4.30;99.90;;;;;;5089897;28;20040;-72
2022/04/27 01:31:12;;;;;;;9.75;7.78;;;4.30;99.90;;;;;;5090330;28;20040;-72
2022/04/27 01:33:38;;;;;;;9.98;7.45;;;4.30;99.90;;;;;;5090581;28;20424;-72
2022/04/27 01:36:09;;;;;;;11.05;8.52;;;4.20;99.90;;;;;;5109024;28;20051;-72
2022/04/27 01:38:39;;;;;;;11.77;8.48;;;4.10;99.90;;;;;;5110827;28;20043;-72
2022/04/27 01:41:05;;;;;;;8.52;7.63;;;4.10;99.90;;;;;;5110479;28;20439;-72
2022/04/27 01:43:33;;;;;;;8.10;7.30;;;4.10;99.90;;;;;;5110674;28;20397;-72
2022/04/27 01:45:59;;;;;;;12.98;7.93;;;4.00;99.90;;;;;;5110440;28;20110;-72
2022/04/27 01:48:26;;;;;;;9.52;8.52;;;4.00;99.90;;;;;;5110710;28;20393;-72
2022/04/27 01:50:52;;;;;;;11.38;8.38;;;3.90;99.90;;;;;;5110414;28;20378;-72
2022/04/27 01:56:03;;;;;;;11.85;10.32;;;3.90;99.90;;;;;;5110388;28;20150;-72
2022/04/27 01:58:28;;;;;;;14.73;9.55;;;3.90;99.90;;;;;;5093213;28;20042;-72
2022/04/27 02:00:54;;;;;;;12.18;9.48;;;3.90;99.90;;;;;;5109836;28;20040;-72
2022/04/27 02:03:21;;;;;;;16.67;10.52;;;3.90;99.90;;;;;;5107076;28;20132;-72
2022/04/27 02:05:48;;;;;;;14.23;9.57;;;3.90;99.90;;;;;;5094037;28;20493;-72
2022/04/27 02:08:14;;;;;;;13.23;9.85;;;4.00;99.90;;;;;;5114162;28;20081;-72
2022/04/27 02:10:40;;;;;;;13.52;9.15;;;4.00;99.90;;;;;;5113593;28;20035;-72
2022/04/27 02:13:07;;;;;;;11.82;9.43;;;4.00;99.90;;;;;;5114178;28;20558;-72
2022/04/27 02:15:33;;;;;;;10.73;8.85;;;4.10;99.90;;;;;;5113844;28;20489;-72
2022/04/27 02:17:59;;;;;;;12.50;9.77;;;4.10;99.90;;;;;;5113999;28;20493;-72
2022/04/27 02:20:25;;;;;;;12.88;10.00;;;4.10;99.90;;;;;;5113790;28;20367;-72
2022/04/27 02:22:51;;;;;;;17.35;10.15;;;4.20;99.90;;;;;;5113834;28;20088;-72
2022/04/27 02:25:18;;;;;;;11.57;10.20;;;4.20;99.90;;;;;;5113696;28;20481;-72
2022/04/27 02:27:44;;;;;;;14.50;10.10;;;4.20;99.90;;;;;;5113531;28;20070;-72
2022/04/27 02:30:10;;;;;;;14.65;9.68;;;4.30;99.90;;;;;;5113234;28;20079;-72
2022/04/27 02:32:37;;;;;;;13.35;10.73;;;4.40;99.90;;;;;;5113833;28;20409;-72
2022/04/27 02:35:03;;;;;;;15.18;9.77;;;4.50;99.90;;;;;;5113697;28;20483;-72
2022/04/27 02:37:30;;;;;;;11.95;10.20;;;4.50;99.90;;;;;;5096717;28;20397;-72
2022/04/27 02:39:56;;;;;;;17.02;11.25;;;4.60;99.90;;;;;;5113334;28;20446;-72
2022/04/27 02:42:22;;;;;;;13.35;10.57;;;4.70;99.90;;;;;;5113319;27;20383;-72
2022/04/27 02:44:48;;;;;;;13.65;10.10;;;4.70;99.90;;;;;;5113091;28;20042;-72
2022/04/27 02:47:14;;;;;;;13.82;11.27;;;4.60;99.90;;;;;;5113115;28;20044;-72
2022/04/27 02:52:24;;;;;;;11.98;10.43;;;4.70;99.90;;;;;;5104928;28;20417;-72
2022/04/27 02:54:50;;;;;;;13.30;10.60;;;4.70;99.90;;;;;;5113349;28;20052;-73
2022/04/27 02:57:16;;;;;;;11.95;10.00;;;4.80;99.90;;;;;;5113112;28;20048;-72
2022/04/27 02:59:42;;;;;;;17.38;11.18;;;4.80;99.90;;;;;;5112979;28;20184;-72
2022/04/27 03:02:08;;;;;;;15.50;9.90;;;4.80;99.90;;;;;;5112710;28;20082;-73
2022/04/27 03:04:34;;;;;;;15.52;10.68;;;4.80;99.90;;;;;;5112809;28;20031;-73
2022/04/27 03:07:00;;;;;;;12.52;10.35;;;4.70;99.90;;;;;;5112994;28;20637;-73
2022/04/27 03:09:26;;;;;;;15.75;11.20;;;4.70;99.90;;;;;;5113800;28;20081;-73
2022/04/27 03:11:52;;;;;;;17.05;10.13;;;4.80;99.90;;;;;;5112958;28;20065;-72
2022/04/27 03:14:19;;;;;;;16.65;10.65;;;4.70;99.90;;;;;;5112626;28;20031;-72
2022/04/27 03:16:45;;;;;;;12.98;10.93;;;4.70;99.90;;;;;;5112932;28;20459;-72
2022/04/27 03:19:11;;;;;;;12.60;10.93;;;4.80;99.90;;;;;;5112747;28;20461;-72
2022/04/27 03:21:37;;;;;;;16.80;11.00;;;4.80;99.90;;;;;;5112691;28;20085;-72
2022/04/27 03:24:03;;;;;;;16.75;10.93;;;4.80;99.90;;;;;;5112418;28;20481;-72
2022/04/27 03:26:29;;;;;;;13.23;10.73;;;4.90;99.90;;;;;;5112657;28;20084;-72
2022/04/27 03:28:54;;;;;;;10.82;9.25;;;4.90;99.90;;;;;;5111941;27;20082;-71
2022/04/27 03:31:20;;;;;;;12.02;8.68;;;4.90;99.90;;;;;;5111935;28;20031;-71
2022/04/27 03:33:46;;;;;;;9.70;8.50;;;4.90;99.90;;;;;;5112587;28;20512;-72
2022/04/27 03:36:12;;;;;;;9.68;8.73;;;4.90;99.90;;;;;;5112293;28;20043;-71
2022/04/27 03:38:38;;;;;;;10.05;8.35;;;4.90;99.90;;;;;;5112206;28;20050;-71
2022/04/27 03:41:05;;;;;;;9.65;8.60;;;4.90;99.90;;;;;;5111677;28;20122;-72
2022/04/27 03:43:30;;;;;;;14.55;9.00;;;4.90;99.90;;;;;;5112021;28;20512;-72
2022/04/27 03:45:56;;;;;;;11.35;9.88;;;4.90;99.90;;;;;;5095045;28;20067;-71
2022/04/27 03:48:22;;;;;;;15.93;10.85;;;4.90;99.90;;;;;;5112361;28;20477;-72
2022/04/27 03:50:48;;;;;;;14.18;11.05;;;5.00;99.90;;;;;;5111761;28;20043;-72
2022/04/27 03:53:14;;;;;;;15.13;10.98;;;5.00;99.90;;;;;;5112210;28;20489;-72
2022/04/27 03:55:39;;;;;;;14.52;10.80;;;5.00;99.90;;;;;;5111761;28;20081;-72
2022/04/27 03:58:06;;;;;;;16.90;11.40;;;5.00;99.90;;;;;;5113110;27;20401;-72
2022/04/27 04:00:32;;;;;;;14.98;10.98;;;5.00;99.90;;;;;;5111775;28;20043;-72
2022/04/27 04:03:04;;;;;;;16.52;11.43;;;5.10;99.90;;;;;;5111695;28;20036;-73
2022/04/27 04:05:30;;;;;;;16.38;11.68;;;5.10;99.90;;;;;;5111743;28;20046;-72
2022/04/27 04:07:56;;;;;;;17.27;10.73;;;5.10;99.90;;;;;;5111916;28;20115;-71
2022/04/27 04:10:23;;;;;;;16.85;11.00;;;5.10;99.90;;;;;;5111363;28;20036;-72
2022/04/27 04:12:49;;;;;;;17.98;10.98;;;5.10;99.90;;;;;;5111026;28;20043;-71
2022/04/27 04:15:15;;;;;;;13.20;10.50;;;5.10;99.90;;;;;;5111422;28;20122;-72
2022/04/27 04:17:44;;;;;;;15.93;11.77;;;5.10;99.90;;;;;;5106740;28;20032;-72
2022/04/27 04:20:12;;;;;;;17.60;12.32;;;5.10;99.90;;;;;;5092110;28;20032;-71
2022/04/27 04:22:37;;;;;;;15.18;12.13;;;5.10;99.90;;;;;;5091280;28;20040;-71
2022/04/27 04:30:32;;;;;;;14.00;10.57;;;5.20;99.90;;;;;;5107818;28;20048;-71
2022/04/27 04:32:57;;;;;;;17.35;11.60;;;5.10;99.90;;;;;;5094813;28;20063;-72
2022/04/27 04:35:23;;;;;;;14.32;11.52;;;5.20;99.90;;;;;;5090858;28;20044;-72
2022/04/27 04:37:49;;;;;;;15.98;11.13;;;5.20;99.90;;;;;;5106589;28;20065;-72
2022/04/27 04:40:14;;;;;;;14.13;11.13;;;5.20;99.90;;;;;;5110654;28;20043;-72
2022/04/27 04:42:40;;;;;;;13.88;11.48;;;5.20;99.90;;;;;;5105169;28;20044;-72
2022/04/27 04:45:07;;;;;;;13.65;11.15;;;5.20;99.90;;;;;;5100284;28;20127;-72
2022/04/27 04:47:32;;;;;;;14.38;11.10;;;5.30;99.90;;;;;;5111023;28;20039;-72
2022/04/27 04:49:58;;;;;;;14.95;12.05;;;5.30;99.90;;;;;;5110724;28;20104;-72
2022/04/27 04:52:24;;;;;;;15.25;10.52;;;5.40;99.90;;;;;;5111280;28;20058;-71
2022/04/27 04:54:49;;;;;;;14.57;11.05;;;5.40;99.90;;;;;;5111078;28;20050;-71
2022/04/27 04:57:15;;;;;;;18.35;11.68;;;5.50;99.90;;;;;;5111004;28;20119;-72
2022/04/27 04:59:40;;;;;;;15.77;11.50;;;5.60;99.90;;;;;;5110328;28;20031;-72
2022/04/27 05:02:06;;;;;;;20.55;12.07;;;5.60;99.90;;;;;;5110021;28;20043;-72
2022/04/27 05:04:32;;;;;;;15.68;11.55;;;5.60;99.90;;;;;;5090712;28;20035;-72
2022/04/27 05:06:57;;;;;;;25.45;11.98;;;5.70;99.90;;;;;;5090803;28;20043;-72
2022/04/27 05:09:23;;;;;;;16.02;11.50;;;5.80;99.90;;;;;;5090540;28;20047;-72
2022/04/27 05:11:49;;;;;;;17.17;12.18;;;5.80;99.90;;;;;;5106416;28;20101;-72
2022/04/27 05:14:14;;;;;;;19.23;12.52;;;5.90;99.90;;;;;;5109016;28;20044;-72
2022/04/27 05:16:40;;;;;;;16.67;12.10;;;5.90;99.90;;;;;;5109119;28;20401;-72
2022/04/27 05:19:06;;;;;;;18.75;12.00;;;6.00;99.90;;;;;;5108757;28;20122;-72
2022/04/27 05:21:31;;;;;;;21.58;12.57;;;6.00;99.90;;;;;;5108931;28;20561;-72
2022/04/27 05:23:57;;;;;;;17.05;11.77;;;6.00;99.90;;;;;;5109019;28;20040;-72
2022/04/27 05:26:23;;;;;;;15.93;11.88;;;6.00;99.90;;;;;;5110021;28;20031;-72
2022/04/27 05:34:17;;;;;;;20.42;11.35;;;6.30;99.90;;;;;;5115397;28;20075;-72
2022/04/27 05:36:43;;;;;;;13.52;10.75;;;6.40;99.90;;;;;;5115134;28;20067;-72
2022/04/27 05:39:08;;;;;;;12.68;9.95;;;6.50;99.90;;;;;;5118464;28;20040;-72
2022/04/27 05:41:34;;;;;;;12.55;10.18;;;6.60;99.90;;;;;;5119133;27;20042;-72
2022/04/27 05:44:02;;;;;;;12.93;10.00;;;6.60;99.90;;;;;;5122389;27;20439;-72
2022/04/27 05:46:29;;;;;;;14.77;9.60;;;6.60;99.90;;;;;;5120918;27;20489;-72
2022/04/27 05:48:54;;;;;;;11.43;9.30;;;6.70;99.90;;;;;;5126415;27;20035;-73
2022/04/27 05:51:20;;;;;;;10.68;9.52;;;6.70;99.90;;;;;;5122316;27;20032;-72
2022/04/27 05:53:46;;;;;;;14.50;9.02;;;6.80;99.90;;;;;;5120170;27;20480;-72
2022/04/27 05:56:12;;;;;;;10.90;9.80;;;6.90;99.90;;;;;;5124922;27;20044;-72
2022/04/27 05:58:38;;;;;;;13.38;10.35;;;7.00;99.90;;;;;;5130185;27;20042;-72
2022/04/27 06:01:04;;;;;;;13.85;8.90;;;7.10;99.90;;;;;;5119404;27;20046;-73
2022/04/27 06:03:30;;;;;;;11.27;8.57;;;7.20;99.90;;;;;;5120380;27;20054;-73
2022/04/27 06:05:56;;;;;;;14.40;9.05;;;7.30;99.90;;;;;;5114841;27;20036;-72
2022/04/27 06:08:21;;;;;;;10.68;8.38;;;7.30;99.90;;;;;;5117342;27;20039;-72
2022/04/27 06:10:47;;;;;;;11.55;9.57;;;7.40;99.90;;;;;;5108387;28;20046;-72
2022/04/27 06:13:13;;;;;;;12.32;9.25;;;7.50;99.90;;;;;;5104846;28;20562;-72
2022/04/27 06:15:39;;;;;;;10.95;8.63;;;7.60;99.90;;;;;;5108272;27;20050;-72
2022/04/27 06:18:05;;;;;;;14.98;10.20;;;7.70;99.90;;;;;;5110536;27;20043;-73
2022/04/27 06:20:31;;;;;;;14.13;9.70;;;7.70;99.90;;;;;;5113692;28;20557;-72
2022/04/27 06:22:57;;;;;;;10.77;8.18;;;7.80;99.90;;;;;;5113824;28;20076;-72
2022/04/27 06:25:25;;;;;;;11.55;8.35;;;7.90;99.90;;;;;;5113692;28;20031;-72
2022/04/27 06:27:51;;;;;;;13.95;8.20;;;8.00;99.90;;;;;;5095094;28;20401;-73
2022/04/27 06:30:17;;;;;;;12.55;7.90;;;8.00;99.90;;;;;;5105301;28;20478;-73
2022/04/27 06:32:43;;;;;;;12.55;7.90;;;8.10;99.90;;;;;;5101936;28;20565;-73
2022/04/27 06:35:12;;;;;;;17.05;7.65;;;8.10;99.90;;;;;;5112186;28;20127;-73
2022/04/27 06:37:39;;;;;;;11.85;7.00;;;8.20;99.90;;;;;;5108130;28;20406;-73
2022/04/27 06:40:06;;;;;;;9.15;7.72;;;8.20;99.90;;;;;;5122207;27;20443;-74
2022/04/27 06:42:31;;;;;;;10.07;7.05;;;8.30;99.90;;;;;;5113167;28;20409;-74
2022/04/27 06:45:01;;;;;;;11.15;7.50;;;8.40;99.90;;;;;;5096686;28;20069;-74
2022/04/27 06:47:26;;;;;;;9.82;7.28;;;8.40;99.90;;;;;;5127114;27;20081;-74
2022/04/27 06:49:52;;;;;;;11.20;7.03;;;8.50;99.90;;;;;;5133762;27;20071;-74
2022/04/27 06:52:17;;;;;;;13.43;7.03;;;8.50;99.90;;;;;;5122934;27;20047;-73
2022/04/27 06:54:43;;;;;;;11.35;7.00;;;8.60;99.90;;;;;;5095852;27;20044;-73
2022/04/27 06:57:09;;;;;;;10.68;6.50;;;8.70;99.90;;;;;;5113000;28;20401;-73
2022/04/27 06:59:34;;;;;;;10.75;6.18;;;8.70;99.90;;;;;;5095410;28;20389;-72
2022/04/27 07:02:01;;;;;;;9.70;6.53;;;8.80;99.90;;;;;;5112789;28;20046;-72
2022/04/27 07:04:27;;;;;;;11.38;6.80;;;8.80;99.90;;;;;;5108820;27;20397;-72
2022/04/27 07:06:53;;;;;;;9.77;6.00;;;8.90;99.90;;;;;;5106001;28;20048;-73
2022/04/27 07:09:20;;;;;;;11.43;6.78;;;9.00;99.90;;;;;;5112881;28;20065;-72
2022/04/27 07:11:46;;;;;;;8.50;6.45;;;9.10;99.90;;;;;;5089534;28;20058;-73
2022/04/27 07:14:15;;;;;;;9.82;5.47;;;9.20;99.90;;;;;;5112348;28;20470;-72
2022/04/27 07:16:42;;;;;;;9.85;5.30;;;9.30;99.90;;;;;;5098454;28;20040;-73
2022/04/27 07:19:08;;;;;;;8.70;4.47;;;9.40;99.90;;;;;;5092484;28;20108;-72
2022/04/27 07:21:33;;;;;;;8.40;4.90;;;9.40;99.90;;;;;;5096645;28;20493;-73
2022/04/27 07:24:02;;;;;;;8.50;4.57;;;9.50;99.90;;;;;;5104303;28;20040;-72
2022/04/27 07:26:29;;;;;;;9.50;4.70;;;9.60;99.90;;;;;;5095240;28;20042;-72
2022/04/27 07:28:55;;;;;;;6.60;4.35;;;9.70;99.90;;;;;;5093449;28;20084;-73
2022/04/27 07:31:25;;;;;;;9.02;3.90;;;9.70;99.90;;;;;;5107766;28;20118;-72
2022/04/27 07:33:51;;;;;;;8.25;4.18;;;9.80;99.90;;;;;;5124715;27;20123;-72
2022/04/27 07:36:17;;;;;;;7.50;3.78;;;9.90;99.90;;;;;;5104539;28;20046;-72
2022/04/27 07:38:44;;;;;;;6.07;4.03;;;9.80;99.90;;;;;;5108944;28;20085;-72
2022/04/27 07:41:09;;;;;;;7.95;3.65;;;9.90;99.90;;;;;;5111096;28;20090;-72
2022/04/27 07:43:35;;;;;;;5.50;3.75;;;9.90;99.90;;;;;;5111691;28;20058;-73
2022/04/27 07:46:02;;;;;;;7.38;3.50;;;10.00;99.90;;;;;;5146100;27;20409;-73
2022/04/27 07:48:32;;;;;;;5.22;3.65;;;10.10;99.90;;;;;;5111094;28;20031;-73
2022/04/27 07:51:07;;;;;;;7.68;3.53;;;10.20;99.90;;;;;;5111351;28;20031;-72
2022/04/27 07:53:34;;;;;;;6.63;3.33;;;10.20;99.90;;;;;;5125014;27;20080;-73
2022/04/27 07:56:00;;;;;;;6.07;2.10;;;10.40;99.90;;;;;;5111654;28;20466;-73
2022/04/27 07:58:25;;;;;;;4.35;1.92;;;10.40;99.90;;;;;;5110335;28;20044;-72
2022/04/27 08:00:51;;;;;;;4.03;1.70;;;10.40;99.40;;;;;;5104480;28;20169;-72
2022/04/27 08:03:16;;;;;;;3.33;1.58;;;10.40;99.70;;;;;;5102748;28;20059;-72
2022/04/27 08:05:42;;;;;;;3.47;1.50;;;10.40;99.90;;;;;;5121071;27;20073;-71
2022/04/27 08:08:08;;;;;;;5.63;1.52;;;10.60;97.60;;;;;;5107686;28;20114;-72
2022/04/27 08:10:34;;;;;;;5.05;1.40;;;10.70;97.90;;;;;;5096242;28;20039;-72
2022/04/27 08:13:00;;;;;;;5.90;1.50;;;10.80;92.60;;;;;;5098733;28;20050;-72
2022/04/27 08:15:26;;;;;;;3.28;1.30;;;10.90;91.00;;;;;;5105520;28;20073;-72
2022/04/27 08:17:59;;;;;;;3.25;1.30;;;11.00;89.90;;;;;;5090376;28;20124;-73
2022/04/27 08:23:12;;;;;;;6.13;1.80;;;11.10;91.40;;;;;;5091037;28;20122;-72
2022/04/27 08:25:38;;;;;;;3.25;1.65;;;11.20;93.90;;;;;;5090955;28;20031;-71
2022/04/27 08:28:08;;;;;;;3.50;1.45;;;11.30;94.50;;;;;;5091057;28;20039;-73
2022/04/27 08:30:36;;;;;;;3.50;1.40;;;11.40;92.70;;;;;;5090954;28;20391;-72
2022/04/27 08:33:03;;;;;;;4.47;1.50;;;11.40;89.60;;;;;;5091317;28;20105;-72
2022/04/27 08:35:31;;;;;;;3.15;1.30;;;11.60;91.00;;;;;;5091062;28;20052;-72
2022/04/27 08:38:00;;;;;;;4.05;1.60;;;11.70;92.80;;;;;;5091163;28;20078;-72
2022/04/27 08:40:26;;;;;;;5.00;1.50;;;11.80;87.10;;;;;;5090752;28;20073;-73
2022/04/27 08:42:53;;;;;;;4.05;1.50;;;11.90;84.20;;;;;;5106486;28;20074;-73
2022/04/27 08:45:19;;;;;;;3.78;1.42;;;12.00;77.70;;;;;;5105840;28;20027;-73
2022/04/27 08:49:10;;;;;;;6.40;1.70;;;12.10;81.10;;;;;;5118745;27;20320;-73
2022/04/27 08:51:37;;;;;;;5.07;1.60;;;12.10;84.30;;;;;;5080123;28;20044;-73
2022/04/27 08:54:03;;;;;;;4.00;1.42;;;12.20;83.30;;;;;;5060388;28;20119;-73
2022/04/27 08:56:30;;;;;;;3.22;1.30;;;12.20;76.60;;;;;;5076691;28;20127;-72
2022/04/27 08:58:55;;;;;;;5.32;1.70;;;12.20;78.00;;;;;;5115025;27;20038;-72
2022/04/27 09:01:23;;;;;;;4.93;1.73;;;12.30;79.40;;;;;;5042593;28;20033;-72
2022/04/27 09:03:48;;;;;;;4.70;1.55;;;12.40;77.00;;;;;;5049664;28;20044;-72
2022/04/27 09:06:16;;;;;;;5.18;1.42;;;12.40;79.40;;;;;;5067868;28;20379;-72
2022/04/27 09:08:49;;;;;;;9.10;1.83;;;12.40;77.20;;;;;;5067330;28;20041;-72
2022/04/27 09:11:19;;;;;;;3.30;1.60;;;12.40;80.70;;;;;;5066672;28;20037;-72
2022/04/27 09:13:46;;;;;;;5.53;1.65;;;12.30;76.30;;;;;;5086200;28;20039;-72
2022/04/27 09:16:12;;;;;;;5.82;1.70;;;12.40;73.10;;;;;;5080147;28;20120;-72
2022/04/27 09:22:00;;;;;;;6.15;1.70;;;12.30;70.80;;;;;;5082870;28;20565;-72
2022/04/27 09:24:28;;;;;;;5.63;1.55;;;12.20;67.10;;;;;;5086259;28;20060;-72
2022/04/27 09:27:11;;;;;;;8.57;1.80;;;12.20;67.00;;;;;;5085439;28;20071;-72
2022/04/27 09:29:37;;;;;;;5.22;1.65;;;12.30;66.50;;;;;;5068372;28;20029;-72
2022/04/27 09:32:06;;;;;;;5.43;1.60;;;12.40;66.30;;;;;;5085473;28;20094;-72
2022/04/27 09:34:46;;;;;;;7.53;1.83;;;12.60;65.80;;;;;;5085251;28;20040;-72
2022/04/27 09:37:17;;;;;;;3.85;1.52;;;12.70;65.50;;;;;;5085176;28;20080;-72
2022/04/27 09:39:44;;;;;;;4.97;1.80;;;12.80;66.20;;;;;;5085755;28;20040;-72
2022/04/27 09:42:10;;;;;;;7.75;2.05;;;12.90;69.10;;;;;;5088397;28;20043;-72
2022/04/27 09:44:38;;;;;;;5.47;1.98;;;13.00;71.00;;;;;;5087087;28;20036;-72
2022/04/27 09:47:05;;;;;;;3.22;1.45;;;13.00;71.70;;;;;;5087087;28;20402;-72
2022/04/27 09:49:32;;;;;;;6.90;1.90;;;13.00;71.70;;;;;;5088190;28;20043;-72
2022/04/27 09:52:00;;;;;;;4.57;1.60;;;13.00;70.80;;;;;;5085838;28;20119;-71
2022/04/27 09:54:31;;;;;;;7.55;2.60;;;13.00;68.40;;;;;;5079398;28;20497;-72
2022/04/27 09:56:59;;;;;;;4.47;1.52;;;13.20;70.90;;;;;;5085131;28;20055;-72
2022/04/27 09:59:30;;;;;;;4.60;1.42;;;13.20;68.10;;;;;;5079503;28;20047;-72
2022/04/27 10:02:04;;;;;;;6.45;1.60;;;13.30;67.50;;;;;;5057645;22;20045;-72
2022/04/27 10:04:30;;;;;;;4.93;1.80;;;13.30;67.30;;;;;;5026101;28;20052;-72
2022/04/27 10:07:00;;;;;;;4.97;1.70;;;13.30;67.00;;;;;;5032627;28;20072;-72
2022/04/27 10:09:27;;;;;;;5.20;1.80;;;13.30;65.50;;;;;;5032538;28;20056;-72
2022/04/27 10:12:03;;;;;;;3.60;1.60;;;13.40;67.60;;;;;;5034285;28;20128;-73
2022/04/27 10:14:30;;;;;;;6.40;1.95;;;13.30;66.90;;;;;;5033496;28;20045;-72
2022/04/27 10:16:56;;;;;;;8.07;2.10;;;13.10;63.20;;;;;;5033138;28;20100;-73
2022/04/27 10:19:23;;;;;;;6.22;2.20;;;13.10;64.30;;;;;;5033184;28;20056;-72
2022/04/27 10:21:56;;;;;;;5.70;1.98;;;12.90;63.40;;;;;;5032983;28;20045;-72
2022/04/27 10:24:34;;;;;;;6.47;2.00;;;12.80;62.90;;;;;;5033185;28;20037;-72
2022/04/27 10:27:18;;;;;;;8.90;2.17;;;12.90;63.30;;;;;;5034053;28;20072;-72
2022/04/27 10:29:51;;;;;;;5.18;1.80;;;12.90;63.70;;;;;;5032981;28;20045;-73
2022/04/27 10:32:52;;;;;;;6.63;1.90;;;12.90;66.00;;;;;;5032842;28;20491;-72
2022/04/27 10:35:30;;;;;;;7.55;1.98;;;12.90;66.00;;;;;;4956952;28;20047;-73
2022/04/27 10:38:02;;;;;;;5.55;1.80;;;13.00;65.60;;;;;;5023648;28;20107;-73
2022/04/27 10:40:32;;;;;;;5.22;1.77;;;13.00;66.50;;;;;;5032533;28;20128;-72
2022/04/27 10:43:08;;;;;;;9.32;1.80;;;13.10;65.20;;;;;;5032989;28;20112;-72
2022/04/27 10:45:39;;;;;;;6.20;2.28;;;13.30;65.70;;;;;;5032889;28;20041;-73
2022/04/27 10:48:07;;;;;;;5.80;2.00;;;13.30;63.80;;;;;;5032681;28;20045;-72
2022/04/27 10:50:35;;;;;;;5.35;2.17;;;13.30;64.30;;;;;;5032278;28;20069;-72
2022/04/27 10:53:18;;;;;;;5.43;1.98;;;13.40;64.80;;;;;;5032711;28;20045;-73
2022/04/27 10:55:53;;;;;;;7.22;2.30;;;13.50;61.20;;;;;;5024520;28;20108;-74
2022/04/27 10:58:22;;;;;;;5.88;2.08;;;13.30;62.60;;;;;;5032099;28;20041;-73
2022/04/27 11:01:03;;;;;;;4.32;1.85;;;13.40;61.10;;;;;;5026329;28;20061;-73
2022/04/27 11:03:35;;;;;;;7.90;2.28;;;13.50;63.50;;;;;;5021056;28;20061;-73
2022/04/27 11:06:03;;;;;;;8.65;2.30;;;13.70;64.50;;;;;;5031768;28;20064;-73
2022/04/27 11:08:34;;;;;;;6.80;2.03;;;13.70;63.80;;;;;;5021341;28;20041;-73
2022/04/27 11:11:09;;;;;;;8.48;2.30;;;13.80;64.30;;;;;;5011815;28;20038;-73
2022/04/27 11:13:36;;;;;;;8.50;2.42;;;13.90;63.20;;;;;;5032014;28;20161;-73
2022/04/27 11:16:10;;;;;;;3.70;1.75;;;13.90;61.10;;;;;;5032017;28;20053;-73
2022/04/27 11:19:08;;;;;;;4.97;1.77;;;14.00;62.50;;;;;;5023578;28;20064;-73
2022/04/27 11:21:34;;;;;;;7.10;2.17;;;14.00;61.70;;;;;;4982401;28;20172;-72
2022/04/27 11:24:05;;;;;;;6.57;1.90;;;14.10;62.90;;;;;;5031521;28;20057;-74
2022/04/27 11:26:39;;;;;;;8.10;2.00;;;14.30;60.20;;;;;;5025898;28;20100;-73
2022/04/27 11:29:06;;;;;;;5.13;2.10;;;14.40;59.70;;;;;;5026543;28;20045;-74
2022/04/27 11:31:33;;;;;;;7.70;2.08;;;14.40;58.30;;;;;;5025496;28;20052;-74
2022/04/27 11:33:58;;;;;;;5.30;2.45;;;13.90;58.00;;;;;;5021874;28;20056;-74
2022/04/27 11:36:26;;;;;;;7.07;2.10;;;13.70;58.90;;;;;;5030561;28;20033;-74
2022/04/27 11:38:53;;;;;;;5.70;2.03;;;13.80;61.30;;;;;;5027632;28;20103;-74
2022/04/27 11:41:21;;;;;;;4.88;2.08;;;13.70;60.70;;;;;;5023254;28;20053;-74
2022/04/27 11:43:51;;;;;;;5.68;2.00;;;13.80;60.00;;;;;;5029286;28;20107;-74
2022/04/27 11:46:17;;;;;;;7.85;2.00;;;13.90;58.50;;;;;;5014942;28;20049;-74
2022/04/27 11:48:48;;;;;;;7.13;2.20;;;14.10;58.80;;;;;;5028978;28;20125;-74
2022/04/27 11:51:13;;;;;;;4.93;1.80;;;14.40;60.70;;;;;;5025674;28;20033;-74
2022/04/27 11:53:45;;;;;;;5.03;1.92;;;14.30;59.30;;;;;;5024665;28;20100;-74
2022/04/27 11:56:11;;;;;;;5.23;1.70;;;14.10;56.50;;;;;;5017281;28;20081;-74
2022/04/27 11:58:37;;;;;;;4.78;1.80;;;14.20;58.20;;;;;;5029628;28;20068;-74
2022/04/27 12:01:02;;;;;;;8.35;2.05;;;14.30;59.80;;;;;;5031801;28;20037;-74
2022/04/27 12:03:30;;;;;;;7.40;2.20;;;14.50;59.60;;;;;;5031222;28;20049;-74
2022/04/27 12:05:56;;;;;;;4.85;2.00;;;14.60;61.20;;;;;;5014614;28;20052;-74
2022/04/27 12:08:24;;;;;;;7.22;2.20;;;14.80;60.30;;;;;;5030672;28;20048;-74
2022/04/27 12:10:50;;;;;;;7.93;2.53;;;14.80;59.10;;;;;;5027621;28;20053;-74
2022/04/27 12:13:21;;;;;;;4.13;1.80;;;14.90;60.40;;;;;;5024209;28;20045;-74
2022/04/27 12:15:50;;;;;;;5.25;2.00;;;15.00;59.90;;;;;;5029101;28;20049;-74
2022/04/27 12:18:27;;;;;;;8.50;2.55;;;15.10;62.20;;;;;;5026971;28;20050;-73
2022/04/27 12:20:57;;;;;;;8.32;2.28;;;15.00;60.10;;;;;;5029225;28;20128;-74
2022/04/27 12:23:23;;;;;;;5.45;1.70;;;15.00;61.60;;;;;;5028817;28;20088;-74
2022/04/27 12:26:01;;;;;;;6.25;2.03;;;14.90;61.30;;;;;;5029253;28;20041;-73
2022/04/27 12:28:44;;;;;;;5.10;2.05;;;15.10;59.80;;;;;;5011415;28;20484;-74
2022/04/27 12:31:09;;;;;;;8.45;2.28;;;15.30;58.90;;;;;;5028278;28;20052;-73
2022/04/27 12:33:38;;;;;;;6.70;2.20;;;15.40;56.90;;;;;;5028601;28;20037;-74
2022/04/27 12:39:11;;;;;;;5.55;2.30;;;15.50;59.20;;;;;;5030605;28;20103;-74
2022/04/27 12:41:46;;;;;;;5.57;2.05;;;15.60;60.30;;;;;;5032267;28;20135;-73
2022/04/27 12:44:20;;;;;;;6.70;2.35;;;15.60;57.40;;;;;;5022505;28;20037;-73
2022/04/27 12:46:57;;;;;;;8.38;2.50;;;15.50;57.60;;;;;;5026372;28;20048;-73
2022/04/27 12:49:37;;;;;;;7.15;2.38;;;15.60;53.40;;;;;;5030424;28;20041;-73
2022/04/27 12:52:15;;;;;;;7.57;2.10;;;15.50;55.30;;;;;;5030301;28;20044;-74
2022/04/27 12:54:42;;;;;;;6.32;2.40;;;15.30;57.00;;;;;;5030666;28;20049;-73
2022/04/27 12:57:07;;;;;;;8.68;2.00;;;15.40;57.40;;;;;;5028111;28;20045;-73
2022/04/27 12:59:52;;;;;;;8.52;2.30;;;15.40;56.30;;;;;;5030262;28;20068;-74
2022/04/27 13:02:18;;;;;;;6.55;2.10;;;15.10;56.50;;;;;;5029942;28;20053;-74
2022/04/27 13:04:47;;;;;;;8.65;2.10;;;15.10;55.80;;;;;;5031469;28;20065;-73
2022/04/27 13:07:12;;;;;;;6.07;2.13;;;15.10;56.10;;;;;;5028036;28;20056;-73
2022/04/27 13:12:27;;;;;;;7.32;2.10;;;14.90;54.80;;;;;;5028194;28;20042;-73
2022/04/27 13:14:53;;;;;;;7.68;2.50;;;14.80;57.00;;;;;;5022823;28;20038;-73
2022/04/27 13:17:19;;;;;;;7.72;2.60;;;14.90;56.60;;;;;;5010255;28;20041;-74